Hazelton, Canada
Current Conditions -  °F | °C
As of 5:00 PM on Saturday 25 Oct 2014 (Local Time) from CYYD Reporting Station
Rain Showers Rain Showers  
Wind Chill: 36°   Ceiling: 5500
Heat Index: 39°   Visibility: 20mi
Dew Point: 37°   Wind: 5mph
Humidity: 93%   Direction: 190°S
Pressure: 29.55"   Gusts: NA
Location:  55.25°N, 127.67°W
Report Text: CYYD 260000Z 19004KT 20SM VCSH BKN055 OVC090 04/03 A2955 RMK SC5AC3 SLP023
Loading
Personal Weather Stations






























Interactive Weather Map
Tropical Storm Tracking
New forecast layout! Learn more

10-Day Weather Forecast

Advertisements
Track Severe Weather on mobile